logo
Search for airport 
image banner adimage banner adimage banner ad
image banner ad

SD9T - Dias Branco

Located in Fortim, Brazil

ICAO - SD9T, IATA -

Data provided by Airmate  

General information

Coordinates: S4°25'52" W37°46'48"
Elevation is 32 feet MSL.
 
View others Airports in Ceará

Operational data

Special qualification required
Current time UTC:
Current local time:
Weather at : - ( 0 km )
METAR: CYMO 131509Z AUTO 30015G27KT 2SM -SN BKN012 OVC017 M00/M02 A2951 RMK VIS VRB 1 1/4-2 1/2 SLP994
View NOTAMs / SUP AIP / TFR affecting this airport [VIEW]
Communications frequencies: [VIEW]

Runways:

Airport contact information

Address: Fortim Brazil

Satellite view of SD9T